sensor_id;sensor_type;location;lat;lon;timestamp;temperature;humidity
54158;DHT22;40065;49.894;10.358;2023-05-20T00:01:07;15.00;99.90
54158;DHT22;40065;49.894;10.358;2023-05-20T00:06:09;15.00;99.90
54158;DHT22;40065;49.894;10.358;2023-05-20T00:11:11;14.90;99.90
54158;DHT22;40065;49.894;10.358;2023-05-20T00:16:13;15.00;99.90
54158;DHT22;40065;49.894;10.358;2023-05-20T00:21:15;15.10;99.90
54158;DHT22;40065;49.894;10.358;2023-05-20T00:26:18;15.00;99.90
54158;DHT22;40065;49.894;10.358;2023-05-20T00:31:26;15.10;99.90
54158;DHT22;40065;49.894;10.358;2023-05-20T00:36:28;15.20;99.90
54158;DHT22;40065;49.894;10.358;2023-05-20T00:41:29;15.20;99.90
54158;DHT22;40065;49.894;10.358;2023-05-20T00:46:31;15.20;99.90
54158;DHT22;40065;49.894;10.358;2023-05-20T00:51:34;15.20;99.90
54158;DHT22;40065;49.894;10.358;2023-05-20T00:56:36;15.20;99.90
54158;DHT22;40065;49.894;10.358;2023-05-20T01:01:38;15.30;99.90
54158;DHT22;40065;49.894;10.358;2023-05-20T01:06:40;15.30;99.90
54158;DHT22;40065;49.894;10.358;2023-05-20T01:12:07;15.10;99.90
54158;DHT22;40065;49.894;10.358;2023-05-20T01:17:11;15.20;99.90
54158;DHT22;40065;49.894;10.358;2023-05-20T01:22:14;15.20;99.90
54158;DHT22;40065;49.894;10.358;2023-05-20T01:27:17;15.20;99.90
54158;DHT22;40065;49.894;10.358;2023-05-20T01:33:01;15.10;99.90
54158;DHT22;40065;49.894;10.358;2023-05-20T01:37:55;15.20;99.90
54158;DHT22;40065;49.894;10.358;2023-05-20T01:42:58;15.10;99.90
54158;DHT22;40065;49.894;10.358;2023-05-20T01:48:01;15.10;99.90
54158;DHT22;40065;49.894;10.358;2023-05-20T01:53:03;15.10;99.90
54158;DHT22;40065;49.894;10.358;2023-05-20T01:58:05;15.20;99.90
54158;DHT22;40065;49.894;10.358;2023-05-20T02:03:07;15.10;99.90
54158;DHT22;40065;49.894;10.358;2023-05-20T02:08:09;15.20;99.90
54158;DHT22;40065;49.894;10.358;2023-05-20T02:13:11;15.10;99.90
54158;DHT22;40065;49.894;10.358;2023-05-20T02:18:14;15.10;99.90
54158;DHT22;40065;49.894;10.358;2023-05-20T02:23:19;15.00;99.90
54158;DHT22;40065;49.894;10.358;2023-05-20T02:28:21;15.00;99.90
54158;DHT22;40065;49.894;10.358;2023-05-20T02:33:23;14.90;99.90
54158;DHT22;40065;49.894;10.358;2023-05-20T02:38:24;15.00;99.90
54158;DHT22;40065;49.894;10.358;2023-05-20T02:43:27;14.90;99.90
54158;DHT22;40065;49.894;10.358;2023-05-20T02:48:28;14.90;99.90
54158;DHT22;40065;49.894;10.358;2023-05-20T02:53:30;15.00;99.90
54158;DHT22;40065;49.894;10.358;2023-05-20T02:58:32;14.70;99.90
54158;DHT22;40065;49.894;10.358;2023-05-20T03:03:36;14.90;99.90
54158;DHT22;40065;49.894;10.358;2023-05-20T03:08:38;14.90;99.90
54158;DHT22;40065;49.894;10.358;2023-05-20T03:13:40;14.80;99.90
54158;DHT22;40065;49.894;10.358;2023-05-20T03:18:42;14.90;99.90
54158;DHT22;40065;49.894;10.358;2023-05-20T03:23:44;14.90;99.90
54158;DHT22;40065;49.894;10.358;2023-05-20T03:28:46;14.90;99.90
54158;DHT22;40065;49.894;10.358;2023-05-20T03:33:48;14.90;99.90
54158;DHT22;40065;49.894;10.358;2023-05-20T03:38:50;14.80;99.90
54158;DHT22;40065;49.894;10.358;2023-05-20T03:43:52;14.90;99.90
54158;DHT22;40065;49.894;10.358;2023-05-20T03:48:54;14.80;99.90
54158;DHT22;40065;49.894;10.358;2023-05-20T03:53:56;14.80;99.90
54158;DHT22;40065;49.894;10.358;2023-05-20T03:58:57;14.80;99.90
54158;DHT22;40065;49.894;10.358;2023-05-20T04:03:59;14.70;99.90
54158;DHT22;40065;49.894;10.358;2023-05-20T04:09:01;14.70;99.90
54158;DHT22;40065;49.894;10.358;2023-05-20T04:14:04;14.70;99.90
54158;DHT22;40065;49.894;10.358;2023-05-20T04:19:07;14.80;99.90
54158;DHT22;40065;49.894;10.358;2023-05-20T04:24:09;14.90;99.90
54158;DHT22;40065;49.894;10.358;2023-05-20T04:29:11;14.90;99.90
54158;DHT22;40065;49.894;10.358;2023-05-20T04:34:14;14.90;99.90
54158;DHT22;40065;49.894;10.358;2023-05-20T04:39:20;15.10;99.90
54158;DHT22;40065;49.894;10.358;2023-05-20T04:44:26;15.00;99.90
54158;DHT22;40065;49.894;10.358;2023-05-20T04:49:28;15.30;99.90
54158;DHT22;40065;49.894;10.358;2023-05-20T04:54:31;15.30;99.90
54158;DHT22;40065;49.894;10.358;2023-05-20T04:59:36;15.90;99.90
54158;DHT22;40065;49.894;10.358;2023-05-20T05:04:38;16.90;99.90
54158;DHT22;40065;49.894;10.358;2023-05-20T05:09:40;18.70;97.50
54158;DHT22;40065;49.894;10.358;2023-05-20T05:14:42;18.20;97.60
54158;DHT22;40065;49.894;10.358;2023-05-20T05:19:44;18.40;97.50
54158;DHT22;40065;49.894;10.358;2023-05-20T05:24:46;18.30;97.70
54158;DHT22;40065;49.894;10.358;2023-05-20T05:29:49;18.70;96.80
54158;DHT22;40065;49.894;10.358;2023-05-20T05:34:52;20.20;95.10
54158;DHT22;40065;49.894;10.358;2023-05-20T05:39:53;18.10;97.10
54158;DHT22;40065;49.894;10.358;2023-05-20T05:44:56;18.30;97.50
54158;DHT22;40065;49.894;10.358;2023-05-20T05:49:58;19.00;96.70
54158;DHT22;40065;49.894;10.358;2023-05-20T05:55:07;19.40;96.00
54158;DHT22;40065;49.894;10.358;2023-05-20T06:00:09;19.80;95.50
54158;DHT22;40065;49.894;10.358;2023-05-20T06:05:21;20.30;94.70
54158;DHT22;40065;49.894;10.358;2023-05-20T06:10:23;20.90;93.70
54158;DHT22;40065;49.894;10.358;2023-05-20T06:15:24;21.30;92.60
54158;DHT22;40065;49.894;10.358;2023-05-20T06:20:26;22.10;91.80
54158;DHT22;40065;49.894;10.358;2023-05-20T06:25:30;21.20;92.80
54158;DHT22;40065;49.894;10.358;2023-05-20T06:30:32;21.30;92.70
54158;DHT22;40065;49.894;10.358;2023-05-20T06:35:34;21.80;92.20
54158;DHT22;40065;49.894;10.358;2023-05-20T06:40:38;22.50;90.90
54158;DHT22;40065;49.894;10.358;2023-05-20T06:45:40;22.30;91.40
54158;DHT22;40065;49.894;10.358;2023-05-20T06:50:55;22.00;91.30
54158;DHT22;40065;49.894;10.358;2023-05-20T06:55:57;22.30;90.90
54158;DHT22;40065;49.894;10.358;2023-05-20T07:01:00;22.70;90.80
54158;DHT22;40065;49.894;10.358;2023-05-20T07:06:02;23.00;89.20
54158;DHT22;40065;49.894;10.358;2023-05-20T07:11:04;21.40;91.20
54158;DHT22;40065;49.894;10.358;2023-05-20T07:16:07;22.30;91.40
54158;DHT22;40065;49.894;10.358;2023-05-20T07:21:11;22.50;90.50
54158;DHT22;40065;49.894;10.358;2023-05-20T07:26:40;22.90;89.90
54158;DHT22;40065;49.894;10.358;2023-05-20T07:31:42;23.60;88.40
54158;DHT22;40065;49.894;10.358;2023-05-20T07:36:44;23.10;88.40
54158;DHT22;40065;49.894;10.358;2023-05-20T07:41:46;24.00;87.60
54158;DHT22;40065;49.894;10.358;2023-05-20T07:46:48;24.20;86.40
54158;DHT22;40065;49.894;10.358;2023-05-20T07:51:50;23.70;88.40
54158;DHT22;40065;49.894;10.358;2023-05-20T07:56:53;23.80;88.20
54158;DHT22;40065;49.894;10.358;2023-05-20T08:01:55;22.70;90.00
54158;DHT22;40065;49.894;10.358;2023-05-20T08:06:58;23.20;88.20
54158;DHT22;40065;49.894;10.358;2023-05-20T08:12:13;23.30;87.10
54158;DHT22;40065;49.894;10.358;2023-05-20T08:17:15;23.90;87.80
54158;DHT22;40065;49.894;10.358;2023-05-20T08:22:17;24.70;85.60
54158;DHT22;40065;49.894;10.358;2023-05-20T08:27:19;24.70;84.50
54158;DHT22;40065;49.894;10.358;2023-05-20T08:32:21;24.70;84.60
54158;DHT22;40065;49.894;10.358;2023-05-20T08:37:23;25.00;83.60
54158;DHT22;40065;49.894;10.358;2023-05-20T08:42:25;24.70;83.30
54158;DHT22;40065;49.894;10.358;2023-05-20T08:47:29;24.40;83.60
54158;DHT22;40065;49.894;10.358;2023-05-20T08:52:33;24.80;83.80
54158;DHT22;40065;49.894;10.358;2023-05-20T08:57:36;24.90;84.50
54158;DHT22;40065;49.894;10.358;2023-05-20T09:02:38;24.90;81.70
54158;DHT22;40065;49.894;10.358;2023-05-20T09:07:40;25.10;81.50
54158;DHT22;40065;49.894;10.358;2023-05-20T09:12:44;24.30;84.10
54158;DHT22;40065;49.894;10.358;2023-05-20T09:17:48;24.20;82.50
54158;DHT22;40065;49.894;10.358;2023-05-20T09:22:51;24.10;84.10
54158;DHT22;40065;49.894;10.358;2023-05-20T09:27:56;25.30;82.90
54158;DHT22;40065;49.894;10.358;2023-05-20T09:32:59;25.80;80.00
54158;DHT22;40065;49.894;10.358;2023-05-20T09:38:01;25.80;81.20
54158;DHT22;40065;49.894;10.358;2023-05-20T09:43:06;24.00;84.10
54158;DHT22;40065;49.894;10.358;2023-05-20T09:48:08;26.10;78.70
54158;DHT22;40065;49.894;10.358;2023-05-20T09:53:12;25.30;81.10
54158;DHT22;40065;49.894;10.358;2023-05-20T09:58:16;25.30;82.30
54158;DHT22;40065;49.894;10.358;2023-05-20T10:03:23;25.60;80.40
54158;DHT22;40065;49.894;10.358;2023-05-20T10:19:09;24.40;81.00
54158;DHT22;40065;49.894;10.358;2023-05-20T10:24:12;25.30;79.90
54158;DHT22;40065;49.894;10.358;2023-05-20T10:29:18;25.50;78.90
54158;DHT22;40065;49.894;10.358;2023-05-20T10:34:21;26.20;78.60
54158;DHT22;40065;49.894;10.358;2023-05-20T10:39:29;26.20;79.20
54158;DHT22;40065;49.894;10.358;2023-05-20T10:44:45;26.10;78.20
54158;DHT22;40065;49.894;10.358;2023-05-20T10:49:47;26.20;79.00
54158;DHT22;40065;49.894;10.358;2023-05-20T10:59:54;26.30;77.70
54158;DHT22;40065;49.894;10.358;2023-05-20T11:04:57;25.50;78.70
54158;DHT22;40065;49.894;10.358;2023-05-20T11:09:59;26.40;77.80
54158;DHT22;40065;49.894;10.358;2023-05-20T11:15:00;24.90;79.90
54158;DHT22;40065;49.894;10.358;2023-05-20T11:20:04;25.20;80.50
54158;DHT22;40065;49.894;10.358;2023-05-20T11:25:06;26.40;79.20
54158;DHT22;40065;49.894;10.358;2023-05-20T11:30:09;25.90;78.40
54158;DHT22;40065;49.894;10.358;2023-05-20T11:35:22;24.80;80.90
54158;DHT22;40065;49.894;10.358;2023-05-20T11:40:24;25.70;78.60
54158;DHT22;40065;49.894;10.358;2023-05-20T11:45:44;25.10;79.30
54158;DHT22;40065;49.894;10.358;2023-05-20T11:50:47;25.70;79.90
54158;DHT22;40065;49.894;10.358;2023-05-20T12:00:56;24.50;81.60
54158;DHT22;40065;49.894;10.358;2023-05-20T12:06:18;24.80;81.80
54158;DHT22;40065;49.894;10.358;2023-05-20T12:11:20;24.80;81.00
54158;DHT22;40065;49.894;10.358;2023-05-20T12:16:22;25.30;81.00
54158;DHT22;40065;49.894;10.358;2023-05-20T12:21:24;25.60;78.70
54158;DHT22;40065;49.894;10.358;2023-05-20T12:26:27;25.20;80.90
54158;DHT22;40065;49.894;10.358;2023-05-20T12:31:29;24.40;82.00
54158;DHT22;40065;49.894;10.358;2023-05-20T12:36:35;24.20;82.60
54158;DHT22;40065;49.894;10.358;2023-05-20T12:41:38;24.00;83.70
54158;DHT22;40065;49.894;10.358;2023-05-20T12:46:40;24.30;83.30
54158;DHT22;40065;49.894;10.358;2023-05-20T12:51:42;24.10;83.10
54158;DHT22;40065;49.894;10.358;2023-05-20T12:56:43;25.20;81.50
54158;DHT22;40065;49.894;10.358;2023-05-20T13:01:48;25.10;80.60
54158;DHT22;40065;49.894;10.358;2023-05-20T13:06:49;25.40;80.50
54158;DHT22;40065;49.894;10.358;2023-05-20T13:11:51;24.70;82.00
54158;DHT22;40065;49.894;10.358;2023-05-20T13:16:53;25.20;81.20
54158;DHT22;40065;49.894;10.358;2023-05-20T13:21:56;26.90;79.30
54158;DHT22;40065;49.894;10.358;2023-05-20T13:26:57;25.60;76.30
54158;DHT22;40065;49.894;10.358;2023-05-20T13:32:01;24.80;80.20
54158;DHT22;40065;49.894;10.358;2023-05-20T13:37:03;24.70;80.40
54158;DHT22;40065;49.894;10.358;2023-05-20T13:42:05;24.60;82.40
54158;DHT22;40065;49.894;10.358;2023-05-20T13:47:07;24.20;81.00
54158;DHT22;40065;49.894;10.358;2023-05-20T13:52:09;25.10;79.70
54158;DHT22;40065;49.894;10.358;2023-05-20T13:57:11;25.00;79.90
54158;DHT22;40065;49.894;10.358;2023-05-20T14:02:13;25.00;79.40
54158;DHT22;40065;49.894;10.358;2023-05-20T14:07:15;25.90;77.70
54158;DHT22;40065;49.894;10.358;2023-05-20T14:12:17;26.40;76.10
54158;DHT22;40065;49.894;10.358;2023-05-20T14:17:19;25.00;78.10
54158;DHT22;40065;49.894;10.358;2023-05-20T14:22:20;24.50;78.30
54158;DHT22;40065;49.894;10.358;2023-05-20T14:27:22;24.40;80.20
54158;DHT22;40065;49.894;10.358;2023-05-20T14:32:24;24.10;80.80
54158;DHT22;40065;49.894;10.358;2023-05-20T14:37:26;24.70;79.30
54158;DHT22;40065;49.894;10.358;2023-05-20T14:42:28;24.40;80.30
54158;DHT22;40065;49.894;10.358;2023-05-20T14:47:30;25.20;78.40
54158;DHT22;40065;49.894;10.358;2023-05-20T14:52:32;25.20;79.50
54158;DHT22;40065;49.894;10.358;2023-05-20T14:57:34;25.20;77.60
54158;DHT22;40065;49.894;10.358;2023-05-20T15:02:36;25.20;77.70
54158;DHT22;40065;49.894;10.358;2023-05-20T15:07:38;25.50;77.50
54158;DHT22;40065;49.894;10.358;2023-05-20T15:12:39;25.50;78.40
54158;DHT22;40065;49.894;10.358;2023-05-20T15:17:42;25.80;78.30
54158;DHT22;40065;49.894;10.358;2023-05-20T15:22:44;25.30;79.10
54158;DHT22;40065;49.894;10.358;2023-05-20T15:27:48;25.20;78.40
54158;DHT22;40065;49.894;10.358;2023-05-20T15:32:50;26.10;77.90
54158;DHT22;40065;49.894;10.358;2023-05-20T15:37:52;25.90;78.80
54158;DHT22;40065;49.894;10.358;2023-05-20T15:42:55;25.20;78.80
54158;DHT22;40065;49.894;10.358;2023-05-20T15:47:58;25.90;78.70
54158;DHT22;40065;49.894;10.358;2023-05-20T15:53:00;25.80;78.20
54158;DHT22;40065;49.894;10.358;2023-05-20T15:58:02;26.30;78.80
54158;DHT22;40065;49.894;10.358;2023-05-20T16:03:03;25.20;83.00
54158;DHT22;40065;49.894;10.358;2023-05-20T16:08:06;24.70;85.80
54158;DHT22;40065;49.894;10.358;2023-05-20T16:13:07;24.60;85.70
54158;DHT22;40065;49.894;10.358;2023-05-20T16:18:09;24.50;87.30
54158;DHT22;40065;49.894;10.358;2023-05-20T16:23:11;24.10;87.90
54158;DHT22;40065;49.894;10.358;2023-05-20T16:28:13;24.00;88.40
54158;DHT22;40065;49.894;10.358;2023-05-20T16:33:15;23.90;88.90
54158;DHT22;40065;49.894;10.358;2023-05-20T16:38:18;23.80;89.10
54158;DHT22;40065;49.894;10.358;2023-05-20T16:43:19;23.70;90.00
54158;DHT22;40065;49.894;10.358;2023-05-20T16:48:21;23.70;90.00
54158;DHT22;40065;49.894;10.358;2023-05-20T16:53:23;23.70;90.30
54158;DHT22;40065;49.894;10.358;2023-05-20T16:58:25;23.70;90.60
54158;DHT22;40065;49.894;10.358;2023-05-20T17:03:27;23.50;90.80
54158;DHT22;40065;49.894;10.358;2023-05-20T17:08:29;23.50;91.20
54158;DHT22;40065;49.894;10.358;2023-05-20T17:13:30;23.40;91.10
54158;DHT22;40065;49.894;10.358;2023-05-20T17:18:32;23.30;91.60
54158;DHT22;40065;49.894;10.358;2023-05-20T17:23:34;23.20;91.80
54158;DHT22;40065;49.894;10.358;2023-05-20T17:28:36;23.20;92.00
54158;DHT22;40065;49.894;10.358;2023-05-20T17:33:38;22.90;92.30
54158;DHT22;40065;49.894;10.358;2023-05-20T17:38:40;22.80;92.80
54158;DHT22;40065;49.894;10.358;2023-05-20T17:43:41;22.70;92.60
54158;DHT22;40065;49.894;10.358;2023-05-20T17:48:43;22.50;92.90
54158;DHT22;40065;49.894;10.358;2023-05-20T17:53:46;22.40;92.90
54158;DHT22;40065;49.894;10.358;2023-05-20T17:58:48;22.40;93.00
54158;DHT22;40065;49.894;10.358;2023-05-20T18:03:49;22.20;93.20
54158;DHT22;40065;49.894;10.358;2023-05-20T18:08:52;22.10;93.50
54158;DHT22;40065;49.894;10.358;2023-05-20T18:13:53;22.00;94.10
54158;DHT22;40065;49.894;10.358;2023-05-20T18:18:59;22.00;94.10
54158;DHT22;40065;49.894;10.358;2023-05-20T18:24:01;21.90;94.40
54158;DHT22;40065;49.894;10.358;2023-05-20T18:29:02;21.80;94.70
54158;DHT22;40065;49.894;10.358;2023-05-20T18:34:04;21.60;95.00
54158;DHT22;40065;49.894;10.358;2023-05-20T18:39:06;21.50;95.20
54158;DHT22;40065;49.894;10.358;2023-05-20T18:44:08;21.30;95.80
54158;DHT22;40065;49.894;10.358;2023-05-20T18:49:10;21.20;95.70
54158;DHT22;40065;49.894;10.358;2023-05-20T18:54:12;21.00;96.00
54158;DHT22;40065;49.894;10.358;2023-05-20T18:59:14;21.00;96.40
54158;DHT22;40065;49.894;10.358;2023-05-20T19:04:16;20.80;96.70
54158;DHT22;40065;49.894;10.358;2023-05-20T19:09:18;20.60;96.90
54158;DHT22;40065;49.894;10.358;2023-05-20T19:14:20;20.50;97.30
54158;DHT22;40065;49.894;10.358;2023-05-20T19:19:22;20.40;98.00
54158;DHT22;40065;49.894;10.358;2023-05-20T19:24:24;20.10;98.50
54158;DHT22;40065;49.894;10.358;2023-05-20T19:29:26;19.90;98.70
54158;DHT22;40065;49.894;10.358;2023-05-20T19:34:28;19.80;99.10
54158;DHT22;40065;49.894;10.358;2023-05-20T19:39:30;19.70;99.40
54158;DHT22;40065;49.894;10.358;2023-05-20T19:44:32;19.60;99.70
54158;DHT22;40065;49.894;10.358;2023-05-20T19:49:33;19.40;99.90
54158;DHT22;40065;49.894;10.358;2023-05-20T19:54:35;19.30;99.90
54158;DHT22;40065;49.894;10.358;2023-05-20T19:59:37;19.20;99.90
54158;DHT22;40065;49.894;10.358;2023-05-20T20:04:39;19.10;99.90
54158;DHT22;40065;49.894;10.358;2023-05-20T20:09:42;18.90;99.90
54158;DHT22;40065;49.894;10.358;2023-05-20T20:14:45;18.80;99.90
54158;DHT22;40065;49.894;10.358;2023-05-20T20:19:48;18.70;99.90
54158;DHT22;40065;49.894;10.358;2023-05-20T20:24:49;18.60;99.90
54158;DHT22;40065;49.894;10.358;2023-05-20T20:29:51;18.60;99.90
54158;DHT22;40065;49.894;10.358;2023-05-20T20:34:53;18.60;99.90
54158;DHT22;40065;49.894;10.358;2023-05-20T20:39:55;18.40;99.90
54158;DHT22;40065;49.894;10.358;2023-05-20T20:44:57;18.40;99.90
54158;DHT22;40065;49.894;10.358;2023-05-20T20:49:58;18.40;99.90
54158;DHT22;40065;49.894;10.358;2023-05-20T20:55:00;18.40;99.90
54158;DHT22;40065;49.894;10.358;2023-05-20T21:00:03;18.30;99.90
54158;DHT22;40065;49.894;10.358;2023-05-20T21:05:16;18.30;99.90
54158;DHT22;40065;49.894;10.358;2023-05-20T21:10:18;18.20;99.90
54158;DHT22;40065;49.894;10.358;2023-05-20T21:15:21;18.10;99.90
54158;DHT22;40065;49.894;10.358;2023-05-20T21:20:23;18.00;99.90
54158;DHT22;40065;49.894;10.358;2023-05-20T21:25:25;18.00;99.90
54158;DHT22;40065;49.894;10.358;2023-05-20T21:30:27;18.00;99.90
54158;DHT22;40065;49.894;10.358;2023-05-20T21:35:28;18.00;99.90
54158;DHT22;40065;49.894;10.358;2023-05-20T21:40:30;17.90;99.90
54158;DHT22;40065;49.894;10.358;2023-05-20T21:45:32;17.80;99.90
54158;DHT22;40065;49.894;10.358;2023-05-20T21:50:34;17.80;99.90
54158;DHT22;40065;49.894;10.358;2023-05-20T21:55:36;17.70;99.90
54158;DHT22;40065;49.894;10.358;2023-05-20T22:00:38;17.70;99.90
54158;DHT22;40065;49.894;10.358;2023-05-20T22:05:41;17.60;99.90
54158;DHT22;40065;49.894;10.358;2023-05-20T22:10:46;17.60;99.90
54158;DHT22;40065;49.894;10.358;2023-05-20T22:15:48;17.60;99.90
54158;DHT22;40065;49.894;10.358;2023-05-20T22:20:50;17.60;99.90
54158;DHT22;40065;49.894;10.358;2023-05-20T22:25:52;17.60;99.90
54158;DHT22;40065;49.894;10.358;2023-05-20T22:30:55;17.70;99.90
54158;DHT22;40065;49.894;10.358;2023-05-20T22:35:57;17.60;99.90
54158;DHT22;40065;49.894;10.358;2023-05-20T22:41:00;17.50;99.90
54158;DHT22;40065;49.894;10.358;2023-05-20T22:46:02;17.50;99.90
54158;DHT22;40065;49.894;10.358;2023-05-20T22:51:04;17.70;99.90
54158;DHT22;40065;49.894;10.358;2023-05-20T22:56:06;18.00;99.90
54158;DHT22;40065;49.894;10.358;2023-05-20T23:01:09;18.00;99.90
54158;DHT22;40065;49.894;10.358;2023-05-20T23:06:11;18.20;99.90
54158;DHT22;40065;49.894;10.358;2023-05-20T23:11:13;18.20;99.90
54158;DHT22;40065;49.894;10.358;2023-05-20T23:16:15;18.10;99.90
54158;DHT22;40065;49.894;10.358;2023-05-20T23:21:17;18.10;99.90
54158;DHT22;40065;49.894;10.358;2023-05-20T23:26:20;18.20;99.90
54158;DHT22;40065;49.894;10.358;2023-05-20T23:31:22;18.30;99.90
54158;DHT22;40065;49.894;10.358;2023-05-20T23:36:24;18.30;99.90
54158;DHT22;40065;49.894;10.358;2023-05-20T23:41:26;18.30;99.90
54158;DHT22;40065;49.894;10.358;2023-05-20T23:46:28;18.20;99.90
54158;DHT22;40065;49.894;10.358;2023-05-20T23:51:30;18.20;99.90
54158;DHT22;40065;49.894;10.358;2023-05-20T23:56:32;18.30;99.90
